sensor_id;sensor_type;location;lat;lon;timestamp;temperature;humidity
11270;DHT22;5692;48.956;9.200;2023-09-30T00:01:38;17.70;99.90
11270;DHT22;5692;48.956;9.200;2023-09-30T00:04:04;17.80;99.90
11270;DHT22;5692;48.956;9.200;2023-09-30T00:06:32;17.80;99.90
11270;DHT22;5692;48.956;9.200;2023-09-30T00:08:58;17.80;99.90
11270;DHT22;5692;48.956;9.200;2023-09-30T00:11:23;18.10;99.90
11270;DHT22;5692;48.956;9.200;2023-09-30T00:13:49;17.80;99.90
11270;DHT22;5692;48.956;9.200;2023-09-30T00:16:15;17.70;99.90
11270;DHT22;5692;48.956;9.200;2023-09-30T00:18:43;17.80;99.90
11270;DHT22;5692;48.956;9.200;2023-09-30T00:21:08;17.80;99.90
11270;DHT22;5692;48.956;9.200;2023-09-30T00:23:34;18.20;99.90
11270;DHT22;5692;48.956;9.200;2023-09-30T00:26:00;17.70;99.90
11270;DHT22;5692;48.956;9.200;2023-09-30T00:28:26;17.70;99.90
11270;DHT22;5692;48.956;9.200;2023-09-30T00:30:52;17.70;99.90
11270;DHT22;5692;48.956;9.200;2023-09-30T00:33:17;17.70;99.90
11270;DHT22;5692;48.956;9.200;2023-09-30T00:35:43;17.60;99.90
11270;DHT22;5692;48.956;9.200;2023-09-30T00:38:08;17.60;99.90
11270;DHT22;5692;48.956;9.200;2023-09-30T00:40:35;17.70;99.90
11270;DHT22;5692;48.956;9.200;2023-09-30T00:43:01;17.60;99.90
11270;DHT22;5692;48.956;9.200;2023-09-30T00:45:27;17.60;99.90
11270;DHT22;5692;48.956;9.200;2023-09-30T00:47:53;17.70;99.90
11270;DHT22;5692;48.956;9.200;2023-09-30T00:50:20;17.60;99.90
11270;DHT22;5692;48.956;9.200;2023-09-30T00:52:47;17.60;99.90
11270;DHT22;5692;48.956;9.200;2023-09-30T00:55:14;18.10;99.90
11270;DHT22;5692;48.956;9.200;2023-09-30T00:57:41;17.60;99.90
11270;DHT22;5692;48.956;9.200;2023-09-30T01:00:07;17.60;99.90
11270;DHT22;5692;48.956;9.200;2023-09-30T01:02:38;17.60;99.90
11270;DHT22;5692;48.956;9.200;2023-09-30T01:05:04;17.60;99.90
11270;DHT22;5692;48.956;9.200;2023-09-30T01:07:30;17.60;99.90
11270;DHT22;5692;48.956;9.200;2023-09-30T01:09:56;17.60;99.90
11270;DHT22;5692;48.956;9.200;2023-09-30T01:12:21;17.70;99.90
11270;DHT22;5692;48.956;9.200;2023-09-30T01:14:47;17.60;99.90
11270;DHT22;5692;48.956;9.200;2023-09-30T01:17:12;17.90;99.90
11270;DHT22;5692;48.956;9.200;2023-09-30T01:19:39;17.90;99.90
11270;DHT22;5692;48.956;9.200;2023-09-30T01:22:05;17.70;99.90
11270;DHT22;5692;48.956;9.200;2023-09-30T01:24:40;18.10;99.90
11270;DHT22;5692;48.956;9.200;2023-09-30T01:27:06;18.00;99.90
11270;DHT22;5692;48.956;9.200;2023-09-30T01:29:31;17.60;99.90
11270;DHT22;5692;48.956;9.200;2023-09-30T01:31:57;17.60;99.90
11270;DHT22;5692;48.956;9.200;2023-09-30T01:34:23;18.10;99.90
11270;DHT22;5692;48.956;9.200;2023-09-30T01:36:48;17.60;99.90
11270;DHT22;5692;48.956;9.200;2023-09-30T01:39:14;18.00;99.90
11270;DHT22;5692;48.956;9.200;2023-09-30T01:41:40;17.60;99.90
11270;DHT22;5692;48.956;9.200;2023-09-30T01:44:07;18.00;99.90
11270;DHT22;5692;48.956;9.200;2023-09-30T01:46:33;17.60;99.90
11270;DHT22;5692;48.956;9.200;2023-09-30T01:48:59;17.60;99.90
11270;DHT22;5692;48.956;9.200;2023-09-30T01:51:24;17.60;99.90
11270;DHT22;5692;48.956;9.200;2023-09-30T01:53:50;17.50;99.90
11270;DHT22;5692;48.956;9.200;2023-09-30T01:56:16;17.50;99.90
11270;DHT22;5692;48.956;9.200;2023-09-30T01:58:41;17.90;99.90
11270;DHT22;5692;48.956;9.200;2023-09-30T02:01:08;17.40;99.90
11270;DHT22;5692;48.956;9.200;2023-09-30T02:03:34;17.50;99.90
11270;DHT22;5692;48.956;9.200;2023-09-30T02:05:59;17.40;99.90
11270;DHT22;5692;48.956;9.200;2023-09-30T02:08:25;17.40;99.90
11270;DHT22;5692;48.956;9.200;2023-09-30T02:10:51;17.70;99.90
11270;DHT22;5692;48.956;9.200;2023-09-30T02:13:18;17.40;99.90
11270;DHT22;5692;48.956;9.200;2023-09-30T02:15:43;17.30;99.90
11270;DHT22;5692;48.956;9.200;2023-09-30T02:18:09;17.30;99.90
11270;DHT22;5692;48.956;9.200;2023-09-30T02:20:36;17.50;99.90
11270;DHT22;5692;48.956;9.200;2023-09-30T02:23:08;17.50;99.90
11270;DHT22;5692;48.956;9.200;2023-09-30T02:25:39;17.10;99.90
11270;DHT22;5692;48.956;9.200;2023-09-30T02:28:08;17.10;99.90
11270;DHT22;5692;48.956;9.200;2023-09-30T02:30:34;17.00;99.90
11270;DHT22;5692;48.956;9.200;2023-09-30T02:33:00;17.00;99.90
11270;DHT22;5692;48.956;9.200;2023-09-30T02:35:26;16.90;99.90
11270;DHT22;5692;48.956;9.200;2023-09-30T02:37:52;17.10;99.90
11270;DHT22;5692;48.956;9.200;2023-09-30T02:40:18;16.90;99.90
11270;DHT22;5692;48.956;9.200;2023-09-30T02:42:45;16.70;99.90
11270;DHT22;5692;48.956;9.200;2023-09-30T02:45:11;16.70;99.90
11270;DHT22;5692;48.956;9.200;2023-09-30T02:47:38;16.70;99.90
11270;DHT22;5692;48.956;9.200;2023-09-30T02:50:06;17.00;99.90
11270;DHT22;5692;48.956;9.200;2023-09-30T02:52:41;16.60;99.90
11270;DHT22;5692;48.956;9.200;2023-09-30T02:55:11;17.00;99.90
11270;DHT22;5692;48.956;9.200;2023-09-30T02:57:37;16.60;99.90
11270;DHT22;5692;48.956;9.200;2023-09-30T03:00:04;16.60;99.90
11270;DHT22;5692;48.956;9.200;2023-09-30T03:02:49;16.50;99.90
11270;DHT22;5692;48.956;9.200;2023-09-30T03:05:16;16.80;99.90
11270;DHT22;5692;48.956;9.200;2023-09-30T03:07:42;16.40;99.90
11270;DHT22;5692;48.956;9.200;2023-09-30T03:10:08;16.80;99.90
11270;DHT22;5692;48.956;9.200;2023-09-30T03:12:35;16.40;99.90
11270;DHT22;5692;48.956;9.200;2023-09-30T03:15:01;16.30;99.90
11270;DHT22;5692;48.956;9.200;2023-09-30T03:17:29;16.30;99.90
11270;DHT22;5692;48.956;9.200;2023-09-30T03:19:55;16.30;99.90
11270;DHT22;5692;48.956;9.200;2023-09-30T03:22:22;16.30;99.90
11270;DHT22;5692;48.956;9.200;2023-09-30T03:24:48;16.20;99.90
11270;DHT22;5692;48.956;9.200;2023-09-30T03:27:14;16.20;99.90
11270;DHT22;5692;48.956;9.200;2023-09-30T03:29:41;16.10;99.90
11270;DHT22;5692;48.956;9.200;2023-09-30T03:32:06;16.00;99.90
11270;DHT22;5692;48.956;9.200;2023-09-30T03:34:34;16.00;99.90
11270;DHT22;5692;48.956;9.200;2023-09-30T03:37:01;16.10;99.90
11270;DHT22;5692;48.956;9.200;2023-09-30T03:39:27;16.10;99.90
11270;DHT22;5692;48.956;9.200;2023-09-30T03:41:56;15.90;99.90
11270;DHT22;5692;48.956;9.200;2023-09-30T03:44:23;16.30;99.90
11270;DHT22;5692;48.956;9.200;2023-09-30T03:49:15;15.90;99.90
11270;DHT22;5692;48.956;9.200;2023-09-30T03:51:41;15.80;99.90
11270;DHT22;5692;48.956;9.200;2023-09-30T03:54:07;16.00;99.90
11270;DHT22;5692;48.956;9.200;2023-09-30T03:56:34;15.80;99.90
11270;DHT22;5692;48.956;9.200;2023-09-30T03:58:59;15.80;99.90
11270;DHT22;5692;48.956;9.200;2023-09-30T04:01:25;15.70;99.90
11270;DHT22;5692;48.956;9.200;2023-09-30T04:03:52;16.00;99.90
11270;DHT22;5692;48.956;9.200;2023-09-30T04:06:21;15.80;99.90
11270;DHT22;5692;48.956;9.200;2023-09-30T04:08:47;15.80;99.90
11270;DHT22;5692;48.956;9.200;2023-09-30T04:11:13;15.90;99.90
11270;DHT22;5692;48.956;9.200;2023-09-30T04:13:44;15.90;99.90
11270;DHT22;5692;48.956;9.200;2023-09-30T04:16:10;15.90;99.90
11270;DHT22;5692;48.956;9.200;2023-09-30T04:18:36;15.90;99.90
11270;DHT22;5692;48.956;9.200;2023-09-30T04:21:02;16.30;99.90
11270;DHT22;5692;48.956;9.200;2023-09-30T04:23:29;16.10;99.90
11270;DHT22;5692;48.956;9.200;2023-09-30T04:25:55;15.90;99.90
11270;DHT22;5692;48.956;9.200;2023-09-30T04:28:21;16.30;99.90
11270;DHT22;5692;48.956;9.200;2023-09-30T04:30:50;16.00;99.90
11270;DHT22;5692;48.956;9.200;2023-09-30T04:33:16;16.00;99.90
11270;DHT22;5692;48.956;9.200;2023-09-30T04:35:43;16.00;99.90
11270;DHT22;5692;48.956;9.200;2023-09-30T04:38:10;16.00;99.90
11270;DHT22;5692;48.956;9.200;2023-09-30T04:40:36;16.10;99.90
11270;DHT22;5692;48.956;9.200;2023-09-30T04:43:02;16.50;99.90
11270;DHT22;5692;48.956;9.200;2023-09-30T04:45:28;16.10;99.90
11270;DHT22;5692;48.956;9.200;2023-09-30T04:47:54;16.00;99.90
11270;DHT22;5692;48.956;9.200;2023-09-30T04:50:21;16.20;99.90
11270;DHT22;5692;48.956;9.200;2023-09-30T04:52:48;16.20;99.90
11270;DHT22;5692;48.956;9.200;2023-09-30T04:55:17;16.00;99.90
11270;DHT22;5692;48.956;9.200;2023-09-30T04:57:44;16.30;99.90
11270;DHT22;5692;48.956;9.200;2023-09-30T05:00:18;16.20;99.90
11270;DHT22;5692;48.956;9.200;2023-09-30T05:02:45;16.00;99.90
11270;DHT22;5692;48.956;9.200;2023-09-30T05:05:11;16.00;99.90
11270;DHT22;5692;48.956;9.200;2023-09-30T05:07:37;16.00;99.90
11270;DHT22;5692;48.956;9.200;2023-09-30T05:10:05;16.00;99.90
11270;DHT22;5692;48.956;9.200;2023-09-30T05:12:35;16.00;99.90
11270;DHT22;5692;48.956;9.200;2023-09-30T05:15:01;16.40;99.90
11270;DHT22;5692;48.956;9.200;2023-09-30T05:17:27;15.90;99.90
11270;DHT22;5692;48.956;9.200;2023-09-30T05:19:55;15.80;99.90
11270;DHT22;5692;48.956;9.200;2023-09-30T05:22:21;16.00;99.90
11270;DHT22;5692;48.956;9.200;2023-09-30T05:24:51;15.70;99.90
11270;DHT22;5692;48.956;9.200;2023-09-30T05:27:17;15.70;99.90
11270;DHT22;5692;48.956;9.200;2023-09-30T05:29:43;16.10;99.90
11270;DHT22;5692;48.956;9.200;2023-09-30T05:32:09;15.60;99.90
11270;DHT22;5692;48.956;9.200;2023-09-30T05:34:34;15.60;99.90
11270;DHT22;5692;48.956;9.200;2023-09-30T05:37:00;15.60;99.90
11270;DHT22;5692;48.956;9.200;2023-09-30T05:39:26;15.60;99.90
11270;DHT22;5692;48.956;9.200;2023-09-30T05:41:54;15.50;99.90
11270;DHT22;5692;48.956;9.200;2023-09-30T05:44:20;16.00;99.90
11270;DHT22;5692;48.956;9.200;2023-09-30T05:49:13;15.50;99.90
11270;DHT22;5692;48.956;9.200;2023-09-30T05:51:42;15.50;99.90
11270;DHT22;5692;48.956;9.200;2023-09-30T05:56:37;15.60;99.90
11270;DHT22;5692;48.956;9.200;2023-09-30T05:59:07;15.80;99.90
11270;DHT22;5692;48.956;9.200;2023-09-30T06:01:32;15.90;99.90
11270;DHT22;5692;48.956;9.200;2023-09-30T06:03:59;15.60;99.90
11270;DHT22;5692;48.956;9.200;2023-09-30T06:06:26;15.60;99.90
11270;DHT22;5692;48.956;9.200;2023-09-30T06:08:53;15.60;99.90
11270;DHT22;5692;48.956;9.200;2023-09-30T06:11:20;15.50;99.90
11270;DHT22;5692;48.956;9.200;2023-09-30T06:13:52;15.60;99.90
11270;DHT22;5692;48.956;9.200;2023-09-30T06:16:21;15.60;99.90
11270;DHT22;5692;48.956;9.200;2023-09-30T06:18:46;16.00;99.90
11270;DHT22;5692;48.956;9.200;2023-09-30T06:21:14;16.20;99.90
11270;DHT22;5692;48.956;9.200;2023-09-30T06:23:40;16.10;99.90
11270;DHT22;5692;48.956;9.200;2023-09-30T06:26:06;15.90;99.90
11270;DHT22;5692;48.956;9.200;2023-09-30T06:28:31;16.00;99.90
11270;DHT22;5692;48.956;9.200;2023-09-30T06:30:59;16.00;99.90
11270;DHT22;5692;48.956;9.200;2023-09-30T06:33:25;16.00;99.90
11270;DHT22;5692;48.956;9.200;2023-09-30T06:35:51;16.30;99.90
11270;DHT22;5692;48.956;9.200;2023-09-30T06:38:20;15.90;99.90
11270;DHT22;5692;48.956;9.200;2023-09-30T06:40:45;16.40;99.90
11270;DHT22;5692;48.956;9.200;2023-09-30T06:43:14;16.00;99.90
11270;DHT22;5692;48.956;9.200;2023-09-30T06:45:44;16.00;99.90
11270;DHT22;5692;48.956;9.200;2023-09-30T06:48:11;16.40;99.90
11270;DHT22;5692;48.956;9.200;2023-09-30T06:50:43;16.30;99.90
11270;DHT22;5692;48.956;9.200;2023-09-30T06:55:39;16.20;99.90
11270;DHT22;5692;48.956;9.200;2023-09-30T06:58:05;16.70;99.90
11270;DHT22;5692;48.956;9.200;2023-09-30T07:00:33;16.30;99.90
11270;DHT22;5692;48.956;9.200;2023-09-30T07:03:02;16.30;99.90
11270;DHT22;5692;48.956;9.200;2023-09-30T07:05:28;16.40;99.90
11270;DHT22;5692;48.956;9.200;2023-09-30T07:07:54;16.40;99.90
11270;DHT22;5692;48.956;9.200;2023-09-30T07:10:20;16.70;99.90
11270;DHT22;5692;48.956;9.200;2023-09-30T07:12:45;16.60;99.90
11270;DHT22;5692;48.956;9.200;2023-09-30T07:15:11;17.10;99.90
11270;DHT22;5692;48.956;9.200;2023-09-30T07:17:39;17.30;99.90
11270;DHT22;5692;48.956;9.200;2023-09-30T07:20:06;16.90;99.90
11270;DHT22;5692;48.956;9.200;2023-09-30T07:22:32;17.00;99.90
11270;DHT22;5692;48.956;9.200;2023-09-30T07:24:58;17.10;99.90
11270;DHT22;5692;48.956;9.200;2023-09-30T07:27:24;17.20;99.90
11270;DHT22;5692;48.956;9.200;2023-09-30T07:29:50;17.30;99.90
11270;DHT22;5692;48.956;9.200;2023-09-30T07:34:42;17.50;99.90
11270;DHT22;5692;48.956;9.200;2023-09-30T07:37:08;17.50;99.90
11270;DHT22;5692;48.956;9.200;2023-09-30T07:39:36;18.00;99.90
11270;DHT22;5692;48.956;9.200;2023-09-30T07:42:02;17.90;99.90
11270;DHT22;5692;48.956;9.200;2023-09-30T07:44:28;18.00;99.90
11270;DHT22;5692;48.956;9.200;2023-09-30T07:46:54;18.10;99.90
11270;DHT22;5692;48.956;9.200;2023-09-30T07:49:19;18.20;99.90
11270;DHT22;5692;48.956;9.200;2023-09-30T07:51:45;18.30;99.90
11270;DHT22;5692;48.956;9.200;2023-09-30T07:54:13;18.50;99.90
11270;DHT22;5692;48.956;9.200;2023-09-30T07:56:39;18.50;99.90
11270;DHT22;5692;48.956;9.200;2023-09-30T07:59:04;18.90;99.90
11270;DHT22;5692;48.956;9.200;2023-09-30T08:01:31;19.00;99.90
11270;DHT22;5692;48.956;9.200;2023-09-30T08:03:56;18.80;99.90
11270;DHT22;5692;48.956;9.200;2023-09-30T08:06:22;18.80;99.90
11270;DHT22;5692;48.956;9.200;2023-09-30T08:08:48;19.00;99.90
11270;DHT22;5692;48.956;9.200;2023-09-30T08:13:40;19.20;99.90
11270;DHT22;5692;48.956;9.200;2023-09-30T08:16:06;19.40;99.90
11270;DHT22;5692;48.956;9.200;2023-09-30T08:18:32;19.40;99.90
11270;DHT22;5692;48.956;9.200;2023-09-30T08:20:58;19.50;99.90
11270;DHT22;5692;48.956;9.200;2023-09-30T08:23:23;19.60;99.90
11270;DHT22;5692;48.956;9.200;2023-09-30T08:25:49;19.60;99.90
11270;DHT22;5692;48.956;9.200;2023-09-30T08:28:15;19.50;99.90
11270;DHT22;5692;48.956;9.200;2023-09-30T08:30:41;19.50;99.90
11270;DHT22;5692;48.956;9.200;2023-09-30T08:33:07;19.30;99.90
11270;DHT22;5692;48.956;9.200;2023-09-30T08:35:39;19.30;99.90
11270;DHT22;5692;48.956;9.200;2023-09-30T08:38:04;19.60;99.90
11270;DHT22;5692;48.956;9.200;2023-09-30T08:40:30;19.70;99.90
11270;DHT22;5692;48.956;9.200;2023-09-30T08:45:23;19.60;99.90
11270;DHT22;5692;48.956;9.200;2023-09-30T08:47:48;19.90;99.90
11270;DHT22;5692;48.956;9.200;2023-09-30T08:50:16;20.50;99.90
11270;DHT22;5692;48.956;9.200;2023-09-30T08:52:44;20.80;99.90
11270;DHT22;5692;48.956;9.200;2023-09-30T08:55:13;21.00;99.90
11270;DHT22;5692;48.956;9.200;2023-09-30T08:57:40;21.00;99.90
11270;DHT22;5692;48.956;9.200;2023-09-30T09:00:07;21.40;99.90
11270;DHT22;5692;48.956;9.200;2023-09-30T09:02:37;21.10;99.90
11270;DHT22;5692;48.956;9.200;2023-09-30T09:05:03;21.20;99.90
11270;DHT22;5692;48.956;9.200;2023-09-30T09:07:28;21.30;99.90
11270;DHT22;5692;48.956;9.200;2023-09-30T09:10:11;21.40;99.90
11270;DHT22;5692;48.956;9.200;2023-09-30T09:12:39;21.90;99.90
11270;DHT22;5692;48.956;9.200;2023-09-30T09:15:06;22.20;99.90
11270;DHT22;5692;48.956;9.200;2023-09-30T09:20:12;22.30;99.90
11270;DHT22;5692;48.956;9.200;2023-09-30T09:22:43;22.40;99.90
11270;DHT22;5692;48.956;9.200;2023-09-30T09:25:10;22.40;99.90
11270;DHT22;5692;48.956;9.200;2023-09-30T09:27:36;22.30;99.90
11270;DHT22;5692;48.956;9.200;2023-09-30T09:33:03;22.80;99.90
11270;DHT22;5692;48.956;9.200;2023-09-30T09:35:31;22.70;99.90
11270;DHT22;5692;48.956;9.200;2023-09-30T09:38:02;23.10;99.90
11270;DHT22;5692;48.956;9.200;2023-09-30T09:52:54;23.50;99.90
11270;DHT22;5692;48.956;9.200;2023-09-30T09:55:22;23.50;99.90
11270;DHT22;5692;48.956;9.200;2023-09-30T09:57:49;23.50;99.90
11270;DHT22;5692;48.956;9.200;2023-09-30T10:00:18;23.70;99.90
11270;DHT22;5692;48.956;9.200;2023-09-30T10:02:47;24.30;99.90
11270;DHT22;5692;48.956;9.200;2023-09-30T10:05:14;24.60;99.90
11270;DHT22;5692;48.956;9.200;2023-09-30T10:12:48;24.70;99.90
11270;DHT22;5692;48.956;9.200;2023-09-30T10:20:39;25.20;99.90
11270;DHT22;5692;48.956;9.200;2023-09-30T10:23:24;25.30;99.90
11270;DHT22;5692;48.956;9.200;2023-09-30T10:26:13;25.30;99.90
11270;DHT22;5692;48.956;9.200;2023-09-30T10:28:41;25.20;99.90
11270;DHT22;5692;48.956;9.200;2023-09-30T10:31:20;25.20;99.90
11270;DHT22;5692;48.956;9.200;2023-09-30T10:36:38;25.70;99.90
11270;DHT22;5692;48.956;9.200;2023-09-30T10:39:05;25.60;99.90
11270;DHT22;5692;48.956;9.200;2023-09-30T10:46:59;25.60;99.90
11270;DHT22;5692;48.956;9.200;2023-09-30T10:51:55;25.50;99.90
11270;DHT22;5692;48.956;9.200;2023-09-30T10:54:30;25.80;99.90
11270;DHT22;5692;48.956;9.200;2023-09-30T10:56:57;25.50;99.90
11270;DHT22;5692;48.956;9.200;2023-09-30T10:59:28;25.60;99.90
11270;DHT22;5692;48.956;9.200;2023-09-30T11:01:56;25.70;99.90
11270;DHT22;5692;48.956;9.200;2023-09-30T11:04:22;25.70;99.90
11270;DHT22;5692;48.956;9.200;2023-09-30T11:06:48;25.90;99.90
11270;DHT22;5692;48.956;9.200;2023-09-30T11:09:22;26.20;99.90
11270;DHT22;5692;48.956;9.200;2023-09-30T11:11:50;26.30;99.90
11270;DHT22;5692;48.956;9.200;2023-09-30T11:14:25;26.30;99.90
11270;DHT22;5692;48.956;9.200;2023-09-30T11:16:52;26.20;99.90
11270;DHT22;5692;48.956;9.200;2023-09-30T11:19:19;26.00;99.90
11270;DHT22;5692;48.956;9.200;2023-09-30T11:21:55;26.20;99.90
11270;DHT22;5692;48.956;9.200;2023-09-30T11:24:21;26.20;99.90
11270;DHT22;5692;48.956;9.200;2023-09-30T11:26:47;25.90;99.90
11270;DHT22;5692;48.956;9.200;2023-09-30T11:29:15;26.30;99.90
11270;DHT22;5692;48.956;9.200;2023-09-30T11:31:45;26.40;99.90
11270;DHT22;5692;48.956;9.200;2023-09-30T11:34:12;26.40;99.90
11270;DHT22;5692;48.956;9.200;2023-09-30T11:51:49;26.20;99.40
11270;DHT22;5692;48.956;9.200;2023-09-30T11:54:16;25.80;99.30
11270;DHT22;5692;48.956;9.200;2023-09-30T11:56:41;25.50;99.90
11270;DHT22;5692;48.956;9.200;2023-09-30T12:01:37;24.70;99.90
11270;DHT22;5692;48.956;9.200;2023-09-30T12:04:03;24.30;99.90
11270;DHT22;5692;48.956;9.200;2023-09-30T12:06:29;24.00;99.90
11270;DHT22;5692;48.956;9.200;2023-09-30T12:08:54;23.80;99.90
11270;DHT22;5692;48.956;9.200;2023-09-30T12:13:49;23.40;99.90
11270;DHT22;5692;48.956;9.200;2023-09-30T12:16:16;23.30;99.90
11270;DHT22;5692;48.956;9.200;2023-09-30T12:18:42;23.50;99.90
11270;DHT22;5692;48.956;9.200;2023-09-30T12:21:09;23.70;99.90
11270;DHT22;5692;48.956;9.200;2023-09-30T12:23:36;23.80;99.90
11270;DHT22;5692;48.956;9.200;2023-09-30T12:26:02;24.10;99.90
11270;DHT22;5692;48.956;9.200;2023-09-30T12:28:34;24.00;99.90
11270;DHT22;5692;48.956;9.200;2023-09-30T12:31:00;24.10;99.90
11270;DHT22;5692;48.956;9.200;2023-09-30T12:33:32;24.30;99.90
11270;DHT22;5692;48.956;9.200;2023-09-30T12:35:59;24.40;99.90
11270;DHT22;5692;48.956;9.200;2023-09-30T12:38:25;24.70;99.90
11270;DHT22;5692;48.956;9.200;2023-09-30T12:40:54;25.00;99.90
11270;DHT22;5692;48.956;9.200;2023-09-30T12:43:21;25.10;99.80
11270;DHT22;5692;48.956;9.200;2023-09-30T12:45:47;25.20;98.60
11270;DHT22;5692;48.956;9.200;2023-09-30T12:48:15;25.20;99.20
11270;DHT22;5692;48.956;9.200;2023-09-30T12:50:43;25.40;99.40
11270;DHT22;5692;48.956;9.200;2023-09-30T12:53:08;25.60;99.50
11270;DHT22;5692;48.956;9.200;2023-09-30T12:58:00;25.40;99.50
11270;DHT22;5692;48.956;9.200;2023-09-30T13:00:26;25.20;99.90
11270;DHT22;5692;48.956;9.200;2023-09-30T13:02:52;25.00;99.80
11270;DHT22;5692;48.956;9.200;2023-09-30T13:05:18;25.00;99.90
11270;DHT22;5692;48.956;9.200;2023-09-30T13:07:46;24.60;99.70
11270;DHT22;5692;48.956;9.200;2023-09-30T13:10:11;24.50;99.90
11270;DHT22;5692;48.956;9.200;2023-09-30T13:12:38;24.50;99.90
11270;DHT22;5692;48.956;9.200;2023-09-30T13:15:05;24.40;99.90
11270;DHT22;5692;48.956;9.200;2023-09-30T13:17:31;24.40;99.90
11270;DHT22;5692;48.956;9.200;2023-09-30T13:19:57;24.50;99.90
11270;DHT22;5692;48.956;9.200;2023-09-30T13:22:23;24.50;99.90
11270;DHT22;5692;48.956;9.200;2023-09-30T13:24:49;24.50;99.90
11270;DHT22;5692;48.956;9.200;2023-09-30T13:27:14;24.50;99.60
11270;DHT22;5692;48.956;9.200;2023-09-30T13:29:44;24.40;99.60
11270;DHT22;5692;48.956;9.200;2023-09-30T13:32:10;24.30;99.90
11270;DHT22;5692;48.956;9.200;2023-09-30T13:34:36;24.40;99.60
11270;DHT22;5692;48.956;9.200;2023-09-30T13:37:01;24.40;99.90
11270;DHT22;5692;48.956;9.200;2023-09-30T13:39:27;24.60;99.80
11270;DHT22;5692;48.956;9.200;2023-09-30T13:41:54;24.70;99.40
11270;DHT22;5692;48.956;9.200;2023-09-30T13:44:20;24.50;99.50
11270;DHT22;5692;48.956;9.200;2023-09-30T13:46:47;24.60;98.80
11270;DHT22;5692;48.956;9.200;2023-09-30T13:49:15;24.80;98.80
11270;DHT22;5692;48.956;9.200;2023-09-30T13:51:41;24.80;98.60
11270;DHT22;5692;48.956;9.200;2023-09-30T13:54:07;24.60;98.60
11270;DHT22;5692;48.956;9.200;2023-09-30T14:06:22;24.10;99.00
11270;DHT22;5692;48.956;9.200;2023-09-30T14:08:48;24.00;99.20
11270;DHT22;5692;48.956;9.200;2023-09-30T14:11:13;23.80;99.40
11270;DHT22;5692;48.956;9.200;2023-09-30T14:13:39;23.80;99.60
11270;DHT22;5692;48.956;9.200;2023-09-30T14:16:05;23.70;99.60
11270;DHT22;5692;48.956;9.200;2023-09-30T14:18:32;23.60;99.50
11270;DHT22;5692;48.956;9.200;2023-09-30T14:20:57;23.40;99.80
11270;DHT22;5692;48.956;9.200;2023-09-30T14:23:23;23.20;99.90
11270;DHT22;5692;48.956;9.200;2023-09-30T14:25:49;23.10;99.80
11270;DHT22;5692;48.956;9.200;2023-09-30T14:28:15;23.10;99.90
11270;DHT22;5692;48.956;9.200;2023-09-30T14:30:41;23.40;99.90
11270;DHT22;5692;48.956;9.200;2023-09-30T14:33:06;23.10;99.70
11270;DHT22;5692;48.956;9.200;2023-09-30T14:35:35;23.00;99.70
11270;DHT22;5692;48.956;9.200;2023-09-30T14:38:03;22.90;99.70
11270;DHT22;5692;48.956;9.200;2023-09-30T14:40:28;22.80;99.90
11270;DHT22;5692;48.956;9.200;2023-09-30T14:42:54;22.80;99.90
11270;DHT22;5692;48.956;9.200;2023-09-30T14:45:19;22.80;99.90
11270;DHT22;5692;48.956;9.200;2023-09-30T14:47:47;22.70;99.90
11270;DHT22;5692;48.956;9.200;2023-09-30T14:50:12;22.70;99.90
11270;DHT22;5692;48.956;9.200;2023-09-30T14:52:38;22.60;99.90
11270;DHT22;5692;48.956;9.200;2023-09-30T14:55:04;22.50;99.90
11270;DHT22;5692;48.956;9.200;2023-09-30T14:57:29;22.40;99.90
11270;DHT22;5692;48.956;9.200;2023-09-30T14:59:58;22.40;99.90
11270;DHT22;5692;48.956;9.200;2023-09-30T15:02:27;22.40;99.90
11270;DHT22;5692;48.956;9.200;2023-09-30T15:04:55;22.40;99.90
11270;DHT22;5692;48.956;9.200;2023-09-30T15:07:24;22.30;99.90
11270;DHT22;5692;48.956;9.200;2023-09-30T15:09:51;22.20;99.90
11270;DHT22;5692;48.956;9.200;2023-09-30T15:12:19;22.20;99.90
11270;DHT22;5692;48.956;9.200;2023-09-30T15:14:48;22.10;99.90
11270;DHT22;5692;48.956;9.200;2023-09-30T15:17:13;22.00;99.90
11270;DHT22;5692;48.956;9.200;2023-09-30T15:19:39;21.90;99.90
11270;DHT22;5692;48.956;9.200;2023-09-30T15:22:04;21.90;99.90
11270;DHT22;5692;48.956;9.200;2023-09-30T15:26:56;21.80;99.90
11270;DHT22;5692;48.956;9.200;2023-09-30T15:29:22;21.80;99.90
11270;DHT22;5692;48.956;9.200;2023-09-30T15:31:47;21.80;99.90
11270;DHT22;5692;48.956;9.200;2023-09-30T15:34:13;21.70;99.90
11270;DHT22;5692;48.956;9.200;2023-09-30T15:36:41;21.70;99.90
11270;DHT22;5692;48.956;9.200;2023-09-30T15:39:07;21.70;99.90
11270;DHT22;5692;48.956;9.200;2023-09-30T15:41:33;21.60;99.90
11270;DHT22;5692;48.956;9.200;2023-09-30T15:43:59;21.60;99.90
11270;DHT22;5692;48.956;9.200;2023-09-30T15:46:27;21.60;99.90
11270;DHT22;5692;48.956;9.200;2023-09-30T15:48:53;21.50;99.90
11270;DHT22;5692;48.956;9.200;2023-09-30T15:51:18;21.50;99.90
11270;DHT22;5692;48.956;9.200;2023-09-30T15:53:44;21.50;99.90
11270;DHT22;5692;48.956;9.200;2023-09-30T15:56:10;21.40;99.90
11270;DHT22;5692;48.956;9.200;2023-09-30T15:58:36;21.40;99.90
11270;DHT22;5692;48.956;9.200;2023-09-30T16:01:01;21.40;99.90
11270;DHT22;5692;48.956;9.200;2023-09-30T16:03:28;21.30;99.90
11270;DHT22;5692;48.956;9.200;2023-09-30T16:05:53;21.30;99.90
11270;DHT22;5692;48.956;9.200;2023-09-30T16:08:19;21.20;99.90
11270;DHT22;5692;48.956;9.200;2023-09-30T16:10:45;21.10;99.90
11270;DHT22;5692;48.956;9.200;2023-09-30T16:13:11;21.00;99.90
11270;DHT22;5692;48.956;9.200;2023-09-30T16:15:41;21.00;99.90
11270;DHT22;5692;48.956;9.200;2023-09-30T16:20:33;20.80;99.90
11270;DHT22;5692;48.956;9.200;2023-09-30T16:22:59;20.70;99.90
11270;DHT22;5692;48.956;9.200;2023-09-30T16:25:25;20.60;99.90
11270;DHT22;5692;48.956;9.200;2023-09-30T16:27:51;20.60;99.90
11270;DHT22;5692;48.956;9.200;2023-09-30T16:30:18;20.50;99.90
11270;DHT22;5692;48.956;9.200;2023-09-30T16:32:45;20.50;99.90
11270;DHT22;5692;48.956;9.200;2023-09-30T16:35:10;20.40;99.90
11270;DHT22;5692;48.956;9.200;2023-09-30T16:42:29;20.20;99.90
11270;DHT22;5692;48.956;9.200;2023-09-30T16:44:57;20.10;99.90
11270;DHT22;5692;48.956;9.200;2023-09-30T16:47:22;20.00;99.90
11270;DHT22;5692;48.956;9.200;2023-09-30T16:49:48;19.90;99.90
11270;DHT22;5692;48.956;9.200;2023-09-30T16:52:14;19.90;99.90
11270;DHT22;5692;48.956;9.200;2023-09-30T16:54:40;19.90;99.90
11270;DHT22;5692;48.956;9.200;2023-09-30T16:57:06;19.70;99.90
11270;DHT22;5692;48.956;9.200;2023-09-30T16:59:32;20.00;99.90
11270;DHT22;5692;48.956;9.200;2023-09-30T17:01:58;19.60;99.90
11270;DHT22;5692;48.956;9.200;2023-09-30T17:04:24;19.50;99.90
11270;DHT22;5692;48.956;9.200;2023-09-30T17:06:50;19.50;99.90
11270;DHT22;5692;48.956;9.200;2023-09-30T17:09:15;19.40;99.90
11270;DHT22;5692;48.956;9.200;2023-09-30T17:14:07;19.30;99.90
11270;DHT22;5692;48.956;9.200;2023-09-30T17:16:33;19.20;99.90
11270;DHT22;5692;48.956;9.200;2023-09-30T17:18:58;19.10;99.90
11270;DHT22;5692;48.956;9.200;2023-09-30T17:21:27;19.10;99.90
11270;DHT22;5692;48.956;9.200;2023-09-30T17:23:52;19.10;99.90